Pagina principale
METAR-TAF:

METAR-TAF

Aeroporti :

Tabarka, Tunisia

latitudine: 36-57N, longitudine: 008-45E, altezza: 20 m

Osservazione

Il bollettino è stato emesso 32 minuti fa, alle 04:00 UTC
Vento 7 kt da ovest
Temperature 11°C
Umidità 76%
Pressione 1016 hPa
Visibilità 10 km o più
Nubi sparse ad un'altezza di 2000 ft

METAR: DTKA 020400Z 26007KT 9999 SCT020 11/07 Q1016 NOSIG

Ora: 05:32 (04:32 UTC)

Previsione

Il bollettino è stato emesso 4 ore e 32 minuti fa, alle 00:00 UTC
Previsione valida dal 02 alle 01 UTC al 02 alle 10 UTC
Vento 8 kt da ovest/sud-ovest
Visibilità 10 km o più
Nubi sparse ad un'altezza di 2000 ft

TAF: DTKA 020000Z 0201/0210 25008KT 9999 SCT020

Osservazioni e previsioni meteorologiche di più di 4000 aeroporti (messaggi METAR e TAF).

Le stazioni disponibili sono rappresentate dai dischi gialli e rossi sulla carta.

Puntare il mouse per vedere il nome della stazione.

Clicca sopra per visualizzare le osservazioni e previsioni meteorologiche.

Per cambiare la mappa : fare clic sui pulsanti verdi con una croce nera per ingrandire, il pulsante verde con un trattino per diminuire, o sulla freccia verde per le mappe adiacenti.


METAR-TAF: